Terminal Aerodrome Forecast
Issued by NWS

Current Version | Previous Version | Text Only | Print | Product List | Glossary On
Versions: 1 2 3 4 5 6 7 8 9 10 11 12 13 14 15 16 17 18 19 20 21 22 23 24 25 26 27 28 29 30 31 32 33 34 35 36 37 38
000
FTUS41 KRNK 042336
TAFBCB
TAF
KBCB 042336Z 0500/0524 00000KT P6SM FEW060 OVC250
     FM050300 03005KT P6SM OVC050
     FM050630 00000KT 6SM BR SCT011 OVC020
     FM050800 00000KT 3SM BR SCT004 BKN020
      TEMPO 0511/0513 P6SM NSW BKN004
     FM051300 09005KT P6SM BKN020
     FM051600 08006KT P6SM BKN040=

USA.gov is the U.S. government's official web portal to all federal, state and local government web resources and services.